createdAt,value
2018-05-06T00:00:55.026Z,57.17
2018-05-06T00:01:55.011Z,57.26
2018-05-06T00:02:54.996Z,57.75
2018-05-06T00:03:54.982Z,57.17
2018-05-06T00:04:54.970Z,57.36
2018-05-06T00:05:54.951Z,58.22
2018-05-06T00:06:54.938Z,58.03
2018-05-06T00:07:54.921Z,57.36
2018-05-06T00:08:54.907Z,57.36
2018-05-06T00:09:54.892Z,57.36
2018-05-06T00:10:54.879Z,57.36
2018-05-06T00:11:54.862Z,57.46
2018-05-06T00:12:54.846Z,58.12
2018-05-06T00:13:54.833Z,57.84
2018-05-06T00:14:54.820Z,57.75
2018-05-06T00:15:54.804Z,57.84
2018-05-06T00:16:54.787Z,58.03
2018-05-06T00:17:54.774Z,57.84
2018-05-06T00:18:54.760Z,58.32
2018-05-06T00:19:54.741Z,58.03
2018-05-06T00:20:54.728Z,58.03
2018-05-06T00:21:54.715Z,57.84
2018-05-06T00:22:54.697Z,57.84
2018-05-06T00:23:54.683Z,57.93
2018-05-06T00:24:54.666Z,57.84
2018-05-06T00:25:54.653Z,58.32
2018-05-06T00:26:54.639Z,58.12
2018-05-06T00:27:54.621Z,57.93
2018-05-06T00:28:54.608Z,57.81
2018-05-06T00:29:54.592Z,58.12
2018-05-06T00:30:54.573Z,58.03
2018-05-06T00:31:54.562Z,57.93
2018-05-06T00:32:54.545Z,57.71
2018-05-06T00:33:54.534Z,57.71
2018-05-06T00:34:54.515Z,58.10
2018-05-06T00:35:54.498Z,58.10
2018-05-06T00:36:54.482Z,58.00
2018-05-06T00:37:54.469Z,58.00
2018-05-06T00:38:54.452Z,58.10
2018-05-06T00:39:54.444Z,57.71
2018-05-06T00:40:54.421Z,58.00
2018-05-06T00:41:54.408Z,58.38
2018-05-06T00:42:54.495Z,58.48
2018-05-06T00:43:54.377Z,58.38
2018-05-06T00:44:54.361Z,58.19
2018-05-06T00:45:54.346Z,58.48
2018-05-06T00:46:54.329Z,57.90
2018-05-06T00:47:54.315Z,58.67
2018-05-06T00:48:54.299Z,58.38
2018-05-06T00:49:54.287Z,58.67
2018-05-06T00:50:54.268Z,58.67
2018-05-06T00:51:54.253Z,58.10
2018-05-06T00:52:54.237Z,58.00
2018-05-06T00:53:54.223Z,58.67
2018-05-06T00:54:54.209Z,58.19
2018-05-06T00:55:54.191Z,58.19
2018-05-06T00:56:54.177Z,57.90
2018-05-06T00:57:54.161Z,58.00
2018-05-06T00:58:54.153Z,58.10
2018-05-06T00:59:54.128Z,58.10
2018-05-06T01:00:54.115Z,57.90
2018-05-06T01:01:54.100Z,58.00
2018-05-06T01:02:54.083Z,58.00
2018-05-06T01:03:54.068Z,58.38
2018-05-06T01:04:54.053Z,58.00
2018-05-06T01:05:54.037Z,58.48
2018-05-06T01:06:54.020Z,58.58
2018-05-06T01:07:54.008Z,58.76
2018-05-06T01:08:53.988Z,58.67
2018-05-06T01:09:53.977Z,58.86
2018-05-06T01:10:53.963Z,58.95
2018-05-06T01:11:53.943Z,59.15
2018-05-06T01:12:53.928Z,58.48
2018-05-06T01:13:53.914Z,58.86
2018-05-06T01:14:53.898Z,58.58
2018-05-06T01:15:53.881Z,58.29
2018-05-06T01:16:53.867Z,58.00
2018-05-06T01:17:53.851Z,58.00
2018-05-06T01:18:53.836Z,57.24
2018-05-06T01:19:53.829Z,57.81
2018-05-06T01:20:53.805Z,58.00
2018-05-06T01:21:53.845Z,58.00
2018-05-06T01:22:53.774Z,57.90
2018-05-06T01:23:53.756Z,57.24
2018-05-06T01:24:53.744Z,57.33
2018-05-06T01:25:53.727Z,57.24
2018-05-06T01:26:53.711Z,57.53
2018-05-06T01:27:53.698Z,57.21
2018-05-06T01:28:53.681Z,57.33
2018-05-06T01:29:53.667Z,57.50
2018-05-06T01:30:53.652Z,57.78
2018-05-06T01:31:53.634Z,57.78
2018-05-06T01:32:53.618Z,57.59
2018-05-06T01:33:53.606Z,57.68
2018-05-06T01:34:53.588Z,57.97
2018-05-06T01:35:53.574Z,58.16
2018-05-06T01:36:53.559Z,58.36
2018-05-06T01:37:53.540Z,57.87
2018-05-06T01:38:53.525Z,57.97
2018-05-06T01:39:53.509Z,58.36
2018-05-06T01:40:53.494Z,58.45
2018-05-06T01:41:53.478Z,58.36
2018-05-06T01:42:53.462Z,58.54
2018-05-06T01:43:53.445Z,58.45
2018-05-06T01:44:53.430Z,58.36
2018-05-06T01:45:53.414Z,59.12
2018-05-06T01:46:53.400Z,58.93
2018-05-06T01:47:53.383Z,58.36
2018-05-06T01:48:53.366Z,58.80
2018-05-06T01:49:53.352Z,59.02
2018-05-06T01:50:53.341Z,59.47
2018-05-06T01:51:53.320Z,58.80
2018-05-06T01:52:53.307Z,58.70
2018-05-06T01:53:53.289Z,58.80
2018-05-06T01:54:53.272Z,58.51
2018-05-06T01:55:53.256Z,59.47
2018-05-06T01:56:53.240Z,59.56
2018-05-06T01:57:53.223Z,59.38
2018-05-06T01:58:53.216Z,59.38
2018-05-06T01:59:53.191Z,59.47
2018-05-06T02:00:53.202Z,59.76
2018-05-06T02:01:53.160Z,59.95
2018-05-06T02:02:53.143Z,59.66
2018-05-06T02:03:53.128Z,59.76
2018-05-06T02:04:53.110Z,60.42
2018-05-06T02:05:53.095Z,59.47
2018-05-06T02:06:53.079Z,59.85
2018-05-06T02:07:53.064Z,59.38
2018-05-06T02:08:53.047Z,59.66
2018-05-06T02:09:53.032Z,59.95
2018-05-06T02:10:53.019Z,59.47
2018-05-06T02:11:52.998Z,60.24
2018-05-06T02:12:52.987Z,60.52
2018-05-06T02:13:52.968Z,60.14
2018-05-06T02:14:52.950Z,60.42
2018-05-06T02:15:52.935Z,60.24
2018-05-06T02:16:52.921Z,60.14
2018-05-06T02:17:52.902Z,60.33
2018-05-06T02:18:52.888Z,60.42
2018-05-06T02:19:52.871Z,60.90
2018-05-06T02:20:52.857Z,60.24
2018-05-06T02:21:52.842Z,61.10
2018-05-06T02:22:52.822Z,60.61
2018-05-06T02:23:52.806Z,60.52
2018-05-06T02:24:52.791Z,60.42
2018-05-06T02:25:52.771Z,60.42
2018-05-06T02:26:52.757Z,60.61
2018-05-06T02:27:52.738Z,60.42
2018-05-06T02:28:52.723Z,60.71
2018-05-06T02:29:52.708Z,60.33
2018-05-06T02:30:52.691Z,60.30
2018-05-06T02:31:52.681Z,61.19
2018-05-06T02:32:52.659Z,61.19
2018-05-06T02:33:52.641Z,61.07
2018-05-06T02:34:52.627Z,61.10
2018-05-06T02:35:52.617Z,60.68
2018-05-06T02:36:52.594Z,61.07
2018-05-06T02:37:52.576Z,61.25
2018-05-06T02:38:52.556Z,60.87
2018-05-06T02:39:52.543Z,61.47
2018-05-06T02:40:52.527Z,60.97
2018-05-06T02:41:52.511Z,60.90
2018-05-06T02:42:52.496Z,61.47
2018-05-06T02:43:52.478Z,61.54
2018-05-06T02:44:52.463Z,61.44
2018-05-06T02:45:52.446Z,61.54
2018-05-06T02:46:52.429Z,61.54
2018-05-06T02:47:52.423Z,61.92
2018-05-06T02:48:52.400Z,62.11
2018-05-06T02:49:52.393Z,62.11
2018-05-06T02:50:52.364Z,62.49
2018-05-06T02:51:52.348Z,61.83
2018-05-06T02:52:52.332Z,62.02
2018-05-06T02:53:52.312Z,61.73
2018-05-06T02:54:52.297Z,61.92
2018-05-06T02:55:52.279Z,61.92
2018-05-06T02:56:52.264Z,62.11
2018-05-06T02:57:52.247Z,62.21
2018-05-06T02:58:52.233Z,61.83
2018-05-06T02:59:52.214Z,61.92
2018-05-06T03:00:52.196Z,62.68
2018-05-06T03:01:52.183Z,62.68
2018-05-06T03:02:52.165Z,62.30
2018-05-06T03:03:52.147Z,63.07
2018-05-06T03:04:52.133Z,63.16
2018-05-06T03:05:52.116Z,63.07
2018-05-06T03:06:52.096Z,62.78
2018-05-06T03:07:52.083Z,63.16
2018-05-06T03:08:52.070Z,63.07
2018-05-06T03:09:52.047Z,62.97
2018-05-06T03:10:52.035Z,63.07
2018-05-06T03:11:52.012Z,63.16
2018-05-06T03:12:51.996Z,63.45
2018-05-06T03:13:51.984Z,63.16
2018-05-06T03:14:51.967Z,63.07
2018-05-06T03:15:51.945Z,63.07
2018-05-06T03:16:51.933Z,62.68
2018-05-06T03:17:51.914Z,63.07
2018-05-06T03:18:51.896Z,62.65
2018-05-06T03:19:51.878Z,62.78
2018-05-06T03:20:51.861Z,62.49
2018-05-06T03:21:51.847Z,62.27
2018-05-06T03:22:51.829Z,62.75
2018-05-06T03:23:51.811Z,62.56
2018-05-06T03:24:51.794Z,62.27
2018-05-06T03:25:51.776Z,62.56
2018-05-06T03:26:51.761Z,62.27
2018-05-06T03:27:51.744Z,62.46
2018-05-06T03:28:51.729Z,62.37
2018-05-06T03:29:51.714Z,62.37
2018-05-06T03:30:51.692Z,62.27
2018-05-06T03:31:51.678Z,62.56
2018-05-06T03:32:51.659Z,62.56
2018-05-06T03:33:51.642Z,62.27
2018-05-06T03:34:51.625Z,62.56
2018-05-06T03:35:51.608Z,62.56
2018-05-06T03:36:51.594Z,62.46
2018-05-06T03:37:51.574Z,62.56
2018-05-06T03:38:51.556Z,62.56
2018-05-06T03:39:51.539Z,62.37
2018-05-06T03:40:51.526Z,62.46
2018-05-06T03:41:51.507Z,62.75
2018-05-06T03:42:51.489Z,62.37
2018-05-06T03:43:51.476Z,62.37
2018-05-06T03:44:51.459Z,62.65
2018-05-06T03:45:51.438Z,62.84
2018-05-06T03:46:51.423Z,62.75
2018-05-06T03:47:51.406Z,62.65
2018-05-06T03:48:51.386Z,62.27
2018-05-06T03:49:51.370Z,62.37
2018-05-06T03:50:51.354Z,63.04
2018-05-06T03:51:51.341Z,63.51
2018-05-06T03:52:51.319Z,63.42
2018-05-06T03:53:51.301Z,63.32
2018-05-06T03:54:51.284Z,63.42
2018-05-06T03:55:51.268Z,63.23
2018-05-06T03:56:51.250Z,63.76
2018-05-06T03:57:51.232Z,63.67
2018-05-06T03:58:51.213Z,64.28
2018-05-06T03:59:51.200Z,64.28
2018-05-06T04:00:51.183Z,63.86
2018-05-06T04:01:51.165Z,63.96
2018-05-06T04:02:51.152Z,64.43
2018-05-06T04:03:51.130Z,64.62
2018-05-06T04:04:51.112Z,64.43
2018-05-06T04:05:51.188Z,64.62
2018-05-06T04:06:51.078Z,65.00
2018-05-06T04:07:51.062Z,65.10
2018-05-06T04:08:51.042Z,64.62
2018-05-06T04:09:51.031Z,65.10
2018-05-06T04:10:51.008Z,65.20
2018-05-06T04:11:51.061Z,65.10
2018-05-06T04:12:50.977Z,64.72
2018-05-06T04:13:50.954Z,65.20
2018-05-06T04:14:50.951Z,65.39
2018-05-06T04:15:50.922Z,65.39
2018-05-06T04:16:50.910Z,65.67
2018-05-06T04:17:50.886Z,65.58
2018-05-06T04:18:50.871Z,65.29
2018-05-06T04:19:50.852Z,65.48
2018-05-06T04:20:50.834Z,65.58
2018-05-06T04:21:50.819Z,65.48
2018-05-06T04:22:50.800Z,65.58
2018-05-06T04:23:50.782Z,65.77
2018-05-06T04:24:50.765Z,66.34
2018-05-06T04:25:50.747Z,66.15
2018-05-06T04:26:50.814Z,66.44
2018-05-06T04:27:50.711Z,67.29
2018-05-06T04:28:50.699Z,67.00
2018-05-06T04:29:50.678Z,67.00
2018-05-06T04:30:50.662Z,66.63
2018-05-06T04:31:50.643Z,67.10
2018-05-06T04:32:50.626Z,67.00
2018-05-06T04:33:50.607Z,67.86
2018-05-06T04:34:50.590Z,67.86
2018-05-06T04:35:50.573Z,67.96
2018-05-06T04:36:50.560Z,67.58
2018-05-06T04:37:50.544Z,67.96
2018-05-06T04:38:50.521Z,68.34
2018-05-06T04:39:50.502Z,68.53
2018-05-06T04:40:50.525Z,68.72
2018-05-06T04:41:50.469Z,69.01
2018-05-06T04:42:50.456Z,69.01
2018-05-06T04:43:50.436Z,68.82
2018-05-06T04:44:50.416Z,68.44
2018-05-06T04:45:50.398Z,69.10
2018-05-06T04:46:50.388Z,68.72
2018-05-06T04:47:50.413Z,69.58
2018-05-06T04:48:50.346Z,69.48
2018-05-06T04:49:50.328Z,69.01
2018-05-06T04:50:50.310Z,69.96
2018-05-06T04:51:50.295Z,70.25
2018-05-06T04:52:50.278Z,69.96
2018-05-06T04:53:50.261Z,69.96
2018-05-06T04:54:50.241Z,70.25
2018-05-06T04:55:50.223Z,71.20
2018-05-06T04:56:50.210Z,71.39
2018-05-06T04:57:50.193Z,70.82
2018-05-06T04:58:50.179Z,70.63
2018-05-06T04:59:50.153Z,71.20
2018-05-06T05:00:50.136Z,71.48
2018-05-06T05:01:50.119Z,71.20
2018-05-06T05:02:50.105Z,71.39
2018-05-06T05:03:50.083Z,71.20
2018-05-06T05:04:50.067Z,71.48
2018-05-06T05:05:50.054Z,71.96
2018-05-06T05:06:50.030Z,71.96
2018-05-06T05:07:50.013Z,72.82
2018-05-06T05:08:49.996Z,72.16
2018-05-06T05:09:49.980Z,72.00
2018-05-06T05:10:49.965Z,72.96
2018-05-06T05:11:49.952Z,73.21
2018-05-06T05:12:49.927Z,73.24
2018-05-06T05:13:49.921Z,73.62
2018-05-06T05:14:49.902Z,73.14
2018-05-06T05:15:49.878Z,72.72
2018-05-06T05:16:49.857Z,72.67
2018-05-06T05:17:49.843Z,73.33
2018-05-06T05:18:49.824Z,73.91
2018-05-06T05:19:49.804Z,73.33
2018-05-06T05:20:49.834Z,73.33
2018-05-06T05:21:49.774Z,73.62
2018-05-06T05:22:49.759Z,73.33
2018-05-06T05:23:49.735Z,73.52
2018-05-06T05:24:49.722Z,73.72
2018-05-06T05:25:49.699Z,73.72
2018-05-06T05:26:49.685Z,73.81
2018-05-06T05:27:49.669Z,73.91
2018-05-06T05:28:49.652Z,73.24
2018-05-06T05:29:49.631Z,73.14
2018-05-06T05:30:49.618Z,73.43
2018-05-06T05:31:49.596Z,73.24
2018-05-06T05:32:49.583Z,73.14
2018-05-06T05:33:49.565Z,72.96
2018-05-06T05:34:49.550Z,73.14
2018-05-06T05:35:49.526Z,73.72
2018-05-06T05:36:49.509Z,73.81
2018-05-06T05:37:49.546Z,74.01
2018-05-06T05:38:49.476Z,73.72
2018-05-06T05:39:49.456Z,73.33
2018-05-06T05:40:49.440Z,73.24
2018-05-06T05:41:49.424Z,73.91
2018-05-06T05:42:49.413Z,74.01
2018-05-06T05:43:49.395Z,74.19
2018-05-06T05:44:49.371Z,74.10
2018-05-06T05:45:49.355Z,73.85
2018-05-06T05:46:49.338Z,73.52
2018-05-06T05:47:49.350Z,73.72
2018-05-06T05:48:49.303Z,73.66
2018-05-06T05:49:49.289Z,73.94
2018-05-06T05:50:49.273Z,73.37
2018-05-06T05:51:49.250Z,73.85
2018-05-06T05:52:49.236Z,73.18
2018-05-06T05:53:49.224Z,73.37
2018-05-06T05:54:49.200Z,74.04
2018-05-06T05:55:49.184Z,73.66
2018-05-06T05:56:49.167Z,73.37
2018-05-06T05:57:49.151Z,74.23
2018-05-06T05:58:49.135Z,73.28
2018-05-06T05:59:49.168Z,73.37
2018-05-06T06:00:49.101Z,73.32
2018-05-06T06:01:49.089Z,72.83
2018-05-06T06:02:49.117Z,72.80
2018-05-06T06:03:49.047Z,72.55
2018-05-06T06:04:49.033Z,72.61
2018-05-06T06:05:49.016Z,72.64
2018-05-06T06:06:49.003Z,72.07
2018-05-06T06:07:48.980Z,71.98
2018-05-06T06:08:48.968Z,72.17
2018-05-06T06:09:48.987Z,69.97
2018-05-06T06:10:48.932Z,70.45
2018-05-06T06:11:48.915Z,70.26
2018-05-06T06:12:48.899Z,70.36
2018-05-06T06:13:48.883Z,70.45
2018-05-06T06:14:48.864Z,69.68
2018-05-06T06:15:48.853Z,69.78
2018-05-06T06:16:48.833Z,68.63
2018-05-06T06:17:48.826Z,69.02
2018-05-06T06:18:48.802Z,69.31
2018-05-06T06:19:48.786Z,69.68
2018-05-06T06:20:48.767Z,69.82
2018-05-06T06:21:48.750Z,69.72
2018-05-06T06:22:48.734Z,68.96
2018-05-06T06:23:48.717Z,68.86
2018-05-06T06:24:48.698Z,67.91
2018-05-06T06:25:48.685Z,68.29
2018-05-06T06:26:48.668Z,68.48
2018-05-06T06:27:48.651Z,68.10
2018-05-06T06:28:48.635Z,68.29
2018-05-06T06:29:48.620Z,67.24
2018-05-06T06:30:48.601Z,68.13
2018-05-06T06:31:48.585Z,68.51
2018-05-06T06:32:48.574Z,68.38
2018-05-06T06:33:48.554Z,68.32
2018-05-06T06:34:48.535Z,69.09
2018-05-06T06:35:48.520Z,69.09
2018-05-06T06:36:48.542Z,65.74
2018-05-06T06:37:48.488Z,66.22
2018-05-06T06:38:48.481Z,66.60
2018-05-06T06:39:48.455Z,66.60
2018-05-06T06:40:48.438Z,67.08
2018-05-06T06:41:48.425Z,64.78
2018-05-06T06:42:48.409Z,64.78
2018-05-06T06:43:48.393Z,64.62
2018-05-06T06:44:48.376Z,64.91
2018-05-06T06:45:48.360Z,66.25
2018-05-06T06:46:48.354Z,64.62
2018-05-06T06:47:48.326Z,64.62
2018-05-06T06:48:48.313Z,65.87
2018-05-06T06:49:48.297Z,65.77
2018-05-06T06:50:48.282Z,67.11
2018-05-06T06:51:48.267Z,67.02
2018-05-06T06:52:48.257Z,67.11
2018-05-06T06:53:48.233Z,65.01
2018-05-06T06:54:48.218Z,64.72
2018-05-06T06:55:48.239Z,66.86
2018-05-06T06:56:48.187Z,64.95
2018-05-06T06:57:48.175Z,64.75
2018-05-06T06:58:48.157Z,67.24
2018-05-06T06:59:48.144Z,65.52
2018-05-06T07:00:48.132Z,63.23
2018-05-06T07:01:48.110Z,64.37
2018-05-06T07:02:48.099Z,63.26
2018-05-06T07:03:48.079Z,64.88
2018-05-06T07:04:48.068Z,64.79
2018-05-06T07:05:48.107Z,63.64
2018-05-06T07:06:48.084Z,64.40
2018-05-06T07:07:48.019Z,65.74
2018-05-06T07:08:48.009Z,65.45
2018-05-06T07:09:47.989Z,65.65
2018-05-06T07:10:47.974Z,64.82
2018-05-06T07:11:47.960Z,64.43
2018-05-06T07:12:47.949Z,63.29
2018-05-06T07:13:47.930Z,65.68
2018-05-06T07:14:47.917Z,63.86
2018-05-06T07:15:47.900Z,64.85
2018-05-06T07:16:47.886Z,65.81
2018-05-06T07:17:47.874Z,67.15
2018-05-06T07:18:47.856Z,69.77
2018-05-06T07:19:47.844Z,65.65
2018-05-06T07:20:47.828Z,59.42
2018-05-06T07:21:47.812Z,59.04
2018-05-06T07:22:47.806Z,63.19
2018-05-06T07:23:47.788Z,58.69
2018-05-06T07:24:47.771Z,60.70
2018-05-06T07:25:47.757Z,65.91
2018-05-06T07:26:47.744Z,75.12
2018-05-06T07:27:47.737Z,59.86
2018-05-06T07:28:47.718Z,67.29
2018-05-06T07:29:47.705Z,72.08
2018-05-06T07:30:47.686Z,81.05
2018-05-06T07:31:47.673Z,79.46
2018-05-06T07:32:47.666Z,68.98
2018-05-06T07:33:47.645Z,71.67
2018-05-06T07:34:47.684Z,65.81
2018-05-06T07:35:47.677Z,82.48
2018-05-06T07:36:47.604Z,77.23
2018-05-06T07:37:47.593Z,71.55
2018-05-06T07:38:47.577Z,67.16
2018-05-06T07:39:47.565Z,75.34
2018-05-06T07:40:47.557Z,72.20
2018-05-06T07:41:47.538Z,76.25
2018-05-06T07:42:47.526Z,65.11
2018-05-06T07:43:47.520Z,65.69
2018-05-06T07:44:47.499Z,58.47
2018-05-06T07:45:47.539Z,58.37
2018-05-06T07:46:47.475Z,60.03
2018-05-06T07:47:47.460Z,64.66
2018-05-06T07:48:47.453Z,63.06
2018-05-06T07:49:47.436Z,58.33
2018-05-06T07:50:47.422Z,58.07
2018-05-06T07:51:47.411Z,66.08
2018-05-06T07:52:47.400Z,64.76
2018-05-06T07:53:47.399Z,71.70
2018-05-06T07:54:47.376Z,66.33
2018-05-06T07:55:47.363Z,74.44
2018-05-06T07:56:47.351Z,46.54
2018-05-06T07:57:47.339Z,41.03
2018-05-06T07:58:47.334Z,41.35
2018-05-06T07:59:47.315Z,41.83
2018-05-06T08:00:47.303Z,53.91
2018-05-06T08:01:47.290Z,62.40
2018-05-06T08:02:47.286Z,63.11
2018-05-06T08:03:47.269Z,65.75
2018-05-06T08:04:47.259Z,58.63
2018-05-06T08:05:47.250Z,56.02
2018-05-06T08:06:47.249Z,54.66
2018-05-06T08:07:47.232Z,56.43
2018-05-06T08:08:47.222Z,43.65
2018-05-06T08:09:47.209Z,52.95
2018-05-06T08:10:47.215Z,56.85
2018-05-06T08:11:47.189Z,60.24
2018-05-06T08:12:47.188Z,62.40
2018-05-06T08:13:47.172Z,63.69
2018-05-06T08:14:47.160Z,51.18
2018-05-06T08:15:47.148Z,54.96
2018-05-06T08:16:47.150Z,47.72
2018-05-06T08:17:47.131Z,53.05
2018-05-06T08:18:47.121Z,45.87
2018-05-06T08:19:47.113Z,46.67
2018-05-06T08:20:47.102Z,49.49
2018-05-06T08:21:47.103Z,47.83
2018-05-06T08:22:47.083Z,39.70
2018-05-06T08:23:47.075Z,45.24
2018-05-06T08:24:47.069Z,51.93
2018-05-06T08:25:47.057Z,41.28
2018-05-06T08:26:47.051Z,44.68
2018-05-06T08:27:47.042Z,40.69
2018-05-06T08:28:47.033Z,36.71
2018-05-06T08:29:47.022Z,41.20
2018-05-06T08:30:47.014Z,35.35
2018-05-06T08:31:47.015Z,29.80
2018-05-06T08:32:47.005Z,31.44
2018-05-06T08:33:46.989Z,31.42
2018-05-06T08:34:46.981Z,30.54
2018-05-06T08:35:46.973Z,31.59
2018-05-06T08:36:46.966Z,31.86
2018-05-06T08:37:46.968Z,33.10
2018-05-06T08:38:46.954Z,34.05
2018-05-06T08:39:46.945Z,34.05
2018-05-06T08:40:46.936Z,34.73
2018-05-06T08:41:46.932Z,34.13
2018-05-06T08:42:46.924Z,34.42
2018-05-06T08:43:46.915Z,35.76
2018-05-06T08:44:46.913Z,37.12
2018-05-06T08:45:46.911Z,35.47
2018-05-06T08:46:46.899Z,34.68
2018-05-06T08:47:46.896Z,34.68
2018-05-06T08:48:46.885Z,35.55
2018-05-06T08:49:46.883Z,36.03
2018-05-06T08:50:46.875Z,37.10
2018-05-06T08:51:46.869Z,38.45
2018-05-06T08:52:46.861Z,39.12
2018-05-06T08:53:46.856Z,36.61
2018-05-06T08:54:46.851Z,36.13
2018-05-06T08:55:46.848Z,36.03
2018-05-06T08:56:46.839Z,35.84
2018-05-06T08:57:46.832Z,34.87
2018-05-06T08:58:46.827Z,36.40
2018-05-06T08:59:46.819Z,37.08
2018-05-06T09:00:46.814Z,37.27
2018-05-06T09:01:46.815Z,39.39
2018-05-06T09:02:46.803Z,37.46
2018-05-06T09:03:46.798Z,35.92
2018-05-06T09:04:46.791Z,36.98
2018-05-06T09:05:46.783Z,37.17
2018-05-06T09:06:46.779Z,37.75
2018-05-06T09:07:46.777Z,38.53
2018-05-06T09:08:46.775Z,37.85
2018-05-06T09:09:46.762Z,38.71
2018-05-06T09:10:46.754Z,39.22
2018-05-06T09:11:46.761Z,37.38
2018-05-06T09:12:46.743Z,36.71
2018-05-06T09:13:46.738Z,36.01
2018-05-06T09:14:46.730Z,37.19
2018-05-06T09:15:46.727Z,36.71
2018-05-06T09:16:46.717Z,36.71
2018-05-06T09:17:46.719Z,38.16
2018-05-06T09:18:46.712Z,37.10
2018-05-06T09:19:46.803Z,35.26
2018-05-06T09:20:46.693Z,37.19
2018-05-06T09:21:46.697Z,36.90
2018-05-06T09:22:46.684Z,36.32
2018-05-06T09:23:46.676Z,37.00
2018-05-06T09:24:46.667Z,36.32
2018-05-06T09:25:46.663Z,36.71
2018-05-06T09:26:46.657Z,37.19
2018-05-06T09:27:46.654Z,35.06
2018-05-06T09:28:46.650Z,35.94
2018-05-06T09:29:46.638Z,36.71
2018-05-06T09:30:46.632Z,36.42
2018-05-06T09:31:46.628Z,35.55
2018-05-06T09:32:46.623Z,36.71
2018-05-06T09:33:46.613Z,37.48
2018-05-06T09:34:46.614Z,38.06
2018-05-06T09:35:46.601Z,37.19
2018-05-06T09:36:46.594Z,36.82
2018-05-06T09:37:46.634Z,38.85
2018-05-06T09:38:46.585Z,37.60
2018-05-06T09:39:46.577Z,36.72
2018-05-06T09:40:46.571Z,36.92
2018-05-06T09:41:46.563Z,37.02
2018-05-06T09:42:46.559Z,36.72
2018-05-06T09:43:46.554Z,37.12
2018-05-06T09:44:46.549Z,36.44
2018-05-06T09:45:46.545Z,37.12
2018-05-06T09:46:46.532Z,36.05
2018-05-06T09:47:46.697Z,35.78
2018-05-06T09:48:46.521Z,35.47
2018-05-06T09:49:46.514Z,36.53
2018-05-06T09:50:46.508Z,37.21
2018-05-06T09:51:46.502Z,36.34
2018-05-06T09:52:46.495Z,36.72
2018-05-06T09:53:46.523Z,35.47
2018-05-06T09:54:46.482Z,37.60
2018-05-06T09:55:46.488Z,34.60
2018-05-06T09:56:46.470Z,35.95
2018-05-06T09:57:46.464Z,37.12
2018-05-06T09:58:46.459Z,37.23
2018-05-06T09:59:46.451Z,36.63
2018-05-06T10:00:46.443Z,36.46
2018-05-06T10:01:46.442Z,36.36
2018-05-06T10:02:46.429Z,35.88
2018-05-06T10:03:46.424Z,36.46
2018-05-06T10:04:46.419Z,35.49
2018-05-06T10:05:46.409Z,35.88
2018-05-06T10:06:46.407Z,36.82
2018-05-06T10:07:46.397Z,34.89
2018-05-06T10:08:46.395Z,35.57
2018-05-06T10:09:46.388Z,36.05
2018-05-06T10:10:46.380Z,36.34
2018-05-06T10:11:46.375Z,36.46
2018-05-06T10:12:46.375Z,37.52
2018-05-06T10:13:46.359Z,36.16
2018-05-06T10:14:46.354Z,35.49
2018-05-06T10:15:46.525Z,35.49
2018-05-06T10:16:46.344Z,35.58
2018-05-06T10:17:46.340Z,35.10
2018-05-06T10:18:46.328Z,36.36
2018-05-06T10:19:46.321Z,36.55
2018-05-06T10:20:46.318Z,36.84
2018-05-06T10:21:46.310Z,36.94
2018-05-06T10:22:46.306Z,36.07
2018-05-06T10:23:46.297Z,36.26
2018-05-06T10:24:46.288Z,35.68
2018-05-06T10:25:46.284Z,36.16
2018-05-06T10:26:46.279Z,37.32
2018-05-06T10:27:46.272Z,37.54
2018-05-06T10:28:46.263Z,36.47
2018-05-06T10:29:46.260Z,35.99
2018-05-06T10:30:46.254Z,35.60
2018-05-06T10:31:46.245Z,35.99
2018-05-06T10:32:46.241Z,35.99
2018-05-06T10:33:46.233Z,36.76
2018-05-06T10:34:46.228Z,35.70
2018-05-06T10:35:46.221Z,36.38
2018-05-06T10:36:46.223Z,35.80
2018-05-06T10:37:46.208Z,36.57
2018-05-06T10:38:46.200Z,35.12
2018-05-06T10:39:46.194Z,35.99
2018-05-06T10:40:46.188Z,36.47
2018-05-06T10:41:46.185Z,37.05
2018-05-06T10:42:46.176Z,35.62
2018-05-06T10:43:46.170Z,35.13
2018-05-06T10:44:46.164Z,36.58
2018-05-06T10:45:46.158Z,36.68
2018-05-06T10:46:46.152Z,36.40
2018-05-06T10:47:46.146Z,36.40
2018-05-06T10:48:46.142Z,37.85
2018-05-06T10:49:46.134Z,36.40
2018-05-06T10:50:46.129Z,35.13
2018-05-06T10:51:46.123Z,36.58
2018-05-06T10:52:46.115Z,36.78
2018-05-06T10:53:46.110Z,35.33
2018-05-06T10:54:46.104Z,34.55
2018-05-06T10:55:46.096Z,35.91
2018-05-06T10:56:46.092Z,34.55
2018-05-06T10:57:46.088Z,35.52
2018-05-06T10:58:46.078Z,36.78
2018-05-06T10:59:46.074Z,36.78
2018-05-06T11:00:46.067Z,35.81
2018-05-06T11:01:46.063Z,35.91
2018-05-06T11:02:46.057Z,35.04
2018-05-06T11:03:46.051Z,36.98
2018-05-06T11:04:46.045Z,35.91
2018-05-06T11:05:46.038Z,35.72
2018-05-06T11:06:46.036Z,34.07
2018-05-06T11:07:46.035Z,33.97
2018-05-06T11:08:46.027Z,34.17
2018-05-06T11:09:46.015Z,35.33
2018-05-06T11:10:46.011Z,36.49
2018-05-06T11:11:46.011Z,37.07
2018-05-06T11:12:45.999Z,36.88
2018-05-06T11:13:45.989Z,36.40
2018-05-06T11:14:45.983Z,36.41
2018-05-06T11:15:45.976Z,35.54
2018-05-06T11:16:45.974Z,34.38
2018-05-06T11:17:45.970Z,34.19
2018-05-06T11:18:45.960Z,34.38
2018-05-06T11:19:45.954Z,33.41
2018-05-06T11:20:45.952Z,34.19
2018-05-06T11:21:45.945Z,34.19
2018-05-06T11:22:45.942Z,35.15
2018-05-06T11:23:45.931Z,34.38
2018-05-06T11:24:45.925Z,35.35
2018-05-06T11:25:45.920Z,36.70
2018-05-06T11:26:45.913Z,35.85
2018-05-06T11:27:45.912Z,35.07
2018-05-06T11:28:45.906Z,36.04
2018-05-06T11:29:45.900Z,35.07
2018-05-06T11:30:45.893Z,35.07
2018-05-06T11:31:45.884Z,34.30
2018-05-06T11:32:45.881Z,34.88
2018-05-06T11:33:45.898Z,33.62
2018-05-06T11:34:45.869Z,34.31
2018-05-06T11:35:45.865Z,33.04
2018-05-06T11:36:45.858Z,33.64
2018-05-06T11:37:45.864Z,33.83
2018-05-06T11:38:45.852Z,34.31
2018-05-06T11:39:45.839Z,34.70
2018-05-06T11:40:45.833Z,33.92
2018-05-06T11:41:45.834Z,35.09
2018-05-06T11:42:45.825Z,33.15
2018-05-06T11:43:45.817Z,34.12
2018-05-06T11:44:45.818Z,34.61
2018-05-06T11:45:45.810Z,34.41
2018-05-06T11:46:45.802Z,35.59
2018-05-06T11:47:45.800Z,35.21
2018-05-06T11:48:45.795Z,33.17
2018-05-06T11:49:45.790Z,34.04
2018-05-06T11:50:45.784Z,33.36
2018-05-06T11:51:45.776Z,32.99
2018-05-06T11:52:45.776Z,32.89
2018-05-06T11:53:45.766Z,33.67
2018-05-06T11:54:45.763Z,34.85
2018-05-06T11:55:45.773Z,34.36
2018-05-06T11:56:45.758Z,32.82
2018-05-06T11:57:45.758Z,32.94
2018-05-06T11:58:45.749Z,31.77
2018-05-06T11:59:45.746Z,30.62
2018-05-06T12:00:45.749Z,30.82
2018-05-06T12:01:45.750Z,30.43
2018-05-06T12:02:45.739Z,29.29
2018-05-06T12:03:45.734Z,30.47
2018-05-06T12:04:45.732Z,28.65
2018-05-06T12:05:45.733Z,26.70
2018-05-06T12:06:45.733Z,26.63
2018-05-06T12:07:45.732Z,25.57
2018-05-06T12:08:45.734Z,25.50
2018-05-06T12:09:45.732Z,22.87
2018-05-06T12:10:45.738Z,24.93
2018-05-06T12:11:45.733Z,23.19
2018-05-06T12:12:45.732Z,23.49
2018-05-06T12:13:45.733Z,22.73
2018-05-06T12:14:45.736Z,22.53
2018-05-06T12:15:45.737Z,21.27
2018-05-06T12:16:45.736Z,21.38
2018-05-06T12:17:45.742Z,21.28
2018-05-06T12:18:45.745Z,22.08
2018-05-06T12:19:45.741Z,22.88
2018-05-06T12:20:45.746Z,20.42
2018-05-06T12:21:45.746Z,19.06
2018-05-06T12:22:45.749Z,18.96
2018-05-06T12:23:45.751Z,20.73
2018-05-06T12:24:45.755Z,19.56
2018-05-06T12:25:45.762Z,20.25
2018-05-06T12:26:45.760Z,18.98
2018-05-06T12:27:45.763Z,18.77
2018-05-06T12:28:45.766Z,17.89
2018-05-06T12:29:45.769Z,19.08
2018-05-06T12:30:45.772Z,18.70
2018-05-06T12:31:45.779Z,17.52
2018-05-06T12:32:45.780Z,17.32
2018-05-06T12:33:45.788Z,18.21
2018-05-06T12:34:45.787Z,17.23
2018-05-06T12:35:45.794Z,18.12
2018-05-06T12:36:45.797Z,17.62
2018-05-06T12:37:45.800Z,17.82
2018-05-06T12:38:45.806Z,17.04
2018-05-06T12:39:45.816Z,18.23
2018-05-06T12:40:45.818Z,17.74
2018-05-06T12:41:45.821Z,16.66
2018-05-06T12:42:45.827Z,17.74
2018-05-06T12:43:45.837Z,18.15
2018-05-06T12:44:45.842Z,16.66
2018-05-06T12:45:45.857Z,16.36
2018-05-06T12:46:45.849Z,16.47
2018-05-06T12:47:45.855Z,16.66
2018-05-06T12:48:45.859Z,16.66
2018-05-06T12:49:45.865Z,16.17
2018-05-06T12:50:45.870Z,16.17
2018-05-06T12:51:45.875Z,15.69
2018-05-06T12:52:45.890Z,16.28